Time;durP1;ratioP1;P1;durP2;ratioP2;P2;SDS_P1;SDS_P2;PMS_P1;PMS_P2;Temp;Humidity;BMP_temperature;BMP_pressure;BME280_temperature;BME280_humidity;BME280_pressure;Samples;Min_cycle;Max_cycle;Signal;HPM_P1;HPM_P2
2021/12/14 00:02:17;;;;;;;76.97;46.47;;;;;;;;;;4939192;29;20023;-74
2021/12/14 00:04:43;;;;;;;82.47;46.88;;;;;;;;;;4941708;29;20027;-75
2021/12/14 00:07:12;;;;;;;75.72;46.88;;;;;;;;;;4945239;29;20028;-76
2021/12/14 00:09:40;;;;;;;83.60;50.50;;;;;;;;;;4939409;29;20107;-75
2021/12/14 00:12:35;;;;;;;89.65;50.97;;;;;;;;;;4939422;29;20035;-76
2021/12/14 00:15:04;;;;;;;99.07;54.10;;;;;;;;;;4942264;29;20080;-75
2021/12/14 00:17:41;;;;;;;84.05;49.45;;;;;;;;;;4940761;29;20028;-75
2021/12/14 00:20:11;;;;;;;92.85;51.42;;;;;;;;;;4933284;29;20448;-76
2021/12/14 00:24:06;;;;;;;105.15;58.47;;;;;;;;;;4937697;29;20035;-75
2021/12/14 00:25:26;;;;;;;97.45;55.45;;;;;;;;;;4940927;29;20043;-75
2021/12/14 00:27:52;;;;;;;107.75;57.22;;;;;;;;;;4939862;29;20035;-76
2021/12/14 00:30:19;;;;;;;109.05;58.72;;;;;;;;;;4937298;29;20030;-75
2021/12/14 00:32:45;;;;;;;111.28;56.72;;;;;;;;;;4938936;29;20058;-75
2021/12/14 00:35:13;;;;;;;107.68;59.25;;;;;;;;;;4940726;29;20028;-75
2021/12/14 00:37:43;;;;;;;130.10;66.40;;;;;;;;;;4937136;29;20031;-75
2021/12/14 00:40:13;;;;;;;115.88;58.75;;;;;;;;;;4938681;29;20520;-76
2021/12/14 00:42:39;;;;;;;108.18;58.58;;;;;;;;;;4939187;29;20031;-75
2021/12/14 00:45:05;;;;;;;97.70;55.70;;;;;;;;;;4930321;29;20035;-76
2021/12/14 00:47:32;;;;;;;107.18;57.80;;;;;;;;;;4940450;29;20381;-76
2021/12/14 00:49:58;;;;;;;143.00;67.22;;;;;;;;;;4940041;29;20055;-77
2021/12/14 00:52:25;;;;;;;140.95;66.57;;;;;;;;;;4938222;29;20032;-75
2021/12/14 00:54:51;;;;;;;143.52;68.78;;;;;;;;;;4939409;29;20032;-75
2021/12/14 00:57:17;;;;;;;123.78;60.42;;;;;;;;;;4938029;29;20067;-74
2021/12/14 00:59:44;;;;;;;120.82;61.78;;;;;;;;;;4938055;29;20163;-76
2021/12/14 01:02:12;;;;;;;132.05;64.70;;;;;;;;;;4938803;29;20039;-75
2021/12/14 01:04:45;;;;;;;126.82;61.60;;;;;;;;;;4938989;29;20039;-76
2021/12/14 01:07:12;;;;;;;147.70;68.82;;;;;;;;;;4940547;29;20046;-76
2021/12/14 01:09:40;;;;;;;143.02;69.05;;;;;;;;;;4939137;29;20023;-76
2021/12/14 01:12:11;;;;;;;130.00;64.53;;;;;;;;;;4937305;29;20035;-76
2021/12/14 01:14:46;;;;;;;121.07;62.50;;;;;;;;;;4938078;29;20032;-75
2021/12/14 01:17:40;;;;;;;153.13;70.25;;;;;;;;;;4938051;29;20098;-74
2021/12/14 01:20:08;;;;;;;160.32;68.35;;;;;;;;;;4936794;29;20389;-75
2021/12/14 01:25:13;;;;;;;136.88;65.85;;;;;;;;;;4939597;29;20571;-75
2021/12/14 01:27:45;;;;;;;124.82;61.78;;;;;;;;;;4939909;29;20038;-75
2021/12/14 01:30:21;;;;;;;145.73;65.18;;;;;;;;;;4942206;29;20619;-75
2021/12/14 01:32:49;;;;;;;117.03;59.33;;;;;;;;;;4944787;29;20067;-75
2021/12/14 01:35:16;;;;;;;147.98;66.00;;;;;;;;;;4943375;29;20179;-76
2021/12/14 01:37:47;;;;;;;129.45;61.92;;;;;;;;;;4942172;29;20032;-75
2021/12/14 01:40:30;;;;;;;170.00;79.68;;;;;;;;;;4949299;29;20023;-75
2021/12/14 01:42:57;;;;;;;182.73;88.22;;;;;;;;;;4942356;29;20051;-75
2021/12/14 01:45:24;;;;;;;170.82;77.22;;;;;;;;;;4942636;29;20040;-75
2021/12/14 01:47:52;;;;;;;158.95;74.90;;;;;;;;;;4932889;29;20071;-75
2021/12/14 01:50:21;;;;;;;134.52;63.35;;;;;;;;;;4944201;29;20012;-76
2021/12/14 01:52:48;;;;;;;137.18;63.92;;;;;;;;;;4941906;29;20406;-75
2021/12/14 01:55:18;;;;;;;130.45;64.15;;;;;;;;;;4944027;29;20048;-75
2021/12/14 01:57:45;;;;;;;143.68;66.70;;;;;;;;;;4942293;29;20079;-76
2021/12/14 02:00:17;;;;;;;155.00;67.72;;;;;;;;;;4960840;29;20046;-75
2021/12/14 02:02:44;;;;;;;145.40;67.90;;;;;;;;;;4942076;29;20035;-76
2021/12/14 02:05:20;;;;;;;143.75;68.25;;;;;;;;;;4939220;29;20474;-74
2021/12/14 02:07:47;;;;;;;151.55;67.85;;;;;;;;;;4936363;29;20052;-74
2021/12/14 02:10:16;;;;;;;159.63;72.40;;;;;;;;;;4942914;29;20600;-75
2021/12/14 02:12:44;;;;;;;173.93;75.13;;;;;;;;;;4941282;29;20096;-75
2021/12/14 02:15:13;;;;;;;156.32;70.07;;;;;;;;;;4924486;29;20051;-75
2021/12/14 02:17:40;;;;;;;171.88;75.30;;;;;;;;;;4941599;29;20052;-75
2021/12/14 02:20:07;;;;;;;166.77;76.88;;;;;;;;;;4938848;29;20020;-75
2021/12/14 02:22:33;;;;;;;156.68;71.65;;;;;;;;;;4939610;29;20327;-75
2021/12/14 02:24:59;;;;;;;186.13;76.60;;;;;;;;;;4924369;29;20036;-76
2021/12/14 02:27:33;;;;;;;171.25;72.57;;;;;;;;;;4940800;29;20039;-76
2021/12/14 02:30:04;;;;;;;163.45;68.80;;;;;;;;;;4940964;29;20028;-76
2021/12/14 02:32:30;;;;;;;166.23;67.30;;;;;;;;;;4943175;29;20473;-75
2021/12/14 02:35:00;;;;;;;224.30;72.57;;;;;;;;;;4947727;29;20155;-75
2021/12/14 02:37:35;;;;;;;164.55;66.35;;;;;;;;;;4939467;29;20505;-75
2021/12/14 02:40:13;;;;;;;209.57;67.97;;;;;;;;;;4941369;29;20043;-75
2021/12/14 02:42:39;;;;;;;177.23;67.75;;;;;;;;;;4945278;29;20023;-75
2021/12/14 02:45:06;;;;;;;153.80;62.38;;;;;;;;;;4941287;29;20425;-75
2021/12/14 02:47:32;;;;;;;155.15;61.80;;;;;;;;;;4942917;29;20027;-75
2021/12/14 02:49:58;;;;;;;147.48;60.75;;;;;;;;;;4945098;29;20020;-75
2021/12/14 02:52:35;;;;;;;157.95;61.20;;;;;;;;;;4939308;29;20040;-76
2021/12/14 02:55:24;;;;;;;126.30;56.90;;;;;;;;;;4949700;29;20565;-75
2021/12/14 02:57:52;;;;;;;156.07;67.80;;;;;;;;;;4943767;29;20453;-76
2021/12/14 03:00:19;;;;;;;210.38;72.03;;;;;;;;;;4948863;29;20028;-76
2021/12/14 03:02:46;;;;;;;223.35;69.10;;;;;;;;;;4944051;29;20081;-75
2021/12/14 03:05:18;;;;;;;172.60;65.53;;;;;;;;;;4944374;29;20024;-76
2021/12/14 03:07:47;;;;;;;181.25;68.18;;;;;;;;;;4943709;29;20072;-76
2021/12/14 03:12:47;;;;;;;212.23;68.60;;;;;;;;;;4934912;29;20039;-75
2021/12/14 03:15:16;;;;;;;182.95;63.72;;;;;;;;;;4942021;29;20401;-76
2021/12/14 03:17:43;;;;;;;226.52;66.65;;;;;;;;;;4941235;29;20019;-76
2021/12/14 03:20:09;;;;;;;170.43;60.38;;;;;;;;;;4909453;29;20040;-76
2021/12/14 03:22:50;;;;;;;211.35;61.60;;;;;;;;;;4943115;29;20019;-76
2021/12/14 03:25:18;;;;;;;145.50;56.35;;;;;;;;;;4937390;29;20028;-76
2021/12/14 03:27:45;;;;;;;152.93;55.72;;;;;;;;;;4940478;29;20023;-75
2021/12/14 03:30:31;;;;;;;377.95;71.55;;;;;;;;;;4939849;29;20470;-74
2021/12/14 03:32:59;;;;;;;231.90;60.20;;;;;;;;;;4941953;29;20035;-74
2021/12/14 03:35:44;;;;;;;184.45;56.00;;;;;;;;;;4937518;29;20027;-75
2021/12/14 03:38:13;;;;;;;547.72;71.53;;;;;;;;;;4942740;29;20032;-78
2021/12/14 03:40:39;;;;;;;612.40;72.38;;;;;;;;;;4944171;29;20027;-75
2021/12/14 03:43:05;;;;;;;255.18;60.20;;;;;;;;;;4940855;29;20095;-76
2021/12/14 03:45:32;;;;;;;591.22;63.17;;;;;;;;;;4940288;29;20040;-76
2021/12/14 03:48:00;;;;;;;170.85;53.00;;;;;;;;;;4941352;29;20441;-76
2021/12/14 03:50:28;;;;;;;797.63;73.20;;;;;;;;;;4943436;29;20425;-76
2021/12/14 03:52:55;;;;;;;436.35;61.90;;;;;;;;;;4940683;29;20090;-75
2021/12/14 03:55:24;;;;;;;942.25;85.53;;;;;;;;;;4940882;29;20024;-77
2021/12/14 03:57:51;;;;;;;975.45;82.70;;;;;;;;;;4941808;29;20042;-75
2021/12/14 04:00:37;;;;;;;270.05;54.97;;;;;;;;;;4940568;29;20024;-75
2021/12/14 04:03:06;;;;;;;334.67;55.45;;;;;;;;;;4940531;29;20071;-76
2021/12/14 04:05:34;;;;;;;594.17;70.75;;;;;;;;;;4941334;29;20032;-75
2021/12/14 04:08:00;;;;;;;970.83;91.07;;;;;;;;;;4940558;29;20035;-74
2021/12/14 04:10:30;;;;;;;923.45;77.28;;;;;;;;;;4947097;29;20473;-75
2021/12/14 04:12:58;;;;;;;650.92;74.90;;;;;;;;;;4939046;29;20087;-74
2021/12/14 04:15:25;;;;;;;229.20;55.42;;;;;;;;;;4941248;29;20038;-75
2021/12/14 04:17:51;;;;;;;1138.75;94.05;;;;;;;;;;4941255;29;20019;-74
2021/12/14 04:20:22;;;;;;;546.10;66.60;;;;;;;;;;4941499;29;20390;-76
2021/12/14 04:22:49;;;;;;;564.35;71.78;;;;;;;;;;4942309;29;20178;-76
2021/12/14 04:25:18;;;;;;;601.50;80.55;;;;;;;;;;4935909;29;20055;-75
2021/12/14 04:27:44;;;;;;;501.25;64.93;;;;;;;;;;4944876;29;20075;-76
2021/12/14 04:30:13;;;;;;;232.40;59.67;;;;;;;;;;4941119;29;20036;-75
2021/12/14 04:32:39;;;;;;;193.88;59.03;;;;;;;;;;4940626;29;20075;-78
2021/12/14 04:35:07;;;;;;;223.60;57.80;;;;;;;;;;4940455;29;20031;-75
2021/12/14 04:37:39;;;;;;;220.45;56.90;;;;;;;;;;4938471;29;20043;-75
2021/12/14 04:40:20;;;;;;;204.57;57.67;;;;;;;;;;4940114;29;20019;-76
2021/12/14 04:54:02;;;;;;;531.47;65.50;;;;;;;;;;4878325;29;20069;-78
2021/12/14 04:56:33;;;;;;;559.30;66.22;;;;;;;;;;4881329;29;20071;-75
2021/12/14 04:59:02;;;;;;;645.20;68.53;;;;;;;;;;4878886;29;20041;-75
2021/12/14 05:01:28;;;;;;;768.72;73.75;;;;;;;;;;4879178;29;20049;-74
2021/12/14 05:03:56;;;;;;;617.47;63.95;;;;;;;;;;4880237;29;20037;-74
2021/12/14 05:06:25;;;;;;;701.80;67.22;;;;;;;;;;4881961;29;20057;-76
2021/12/14 05:09:22;;;;;;;564.75;67.90;;;;;;;;;;4880678;29;20037;-75
2021/12/14 05:11:52;;;;;;;330.40;60.42;;;;;;;;;;4879369;29;20104;-74
2021/12/14 05:14:19;;;;;;;400.27;62.42;;;;;;;;;;4879302;29;20052;-75
2021/12/14 05:16:47;;;;;;;364.85;59.90;;;;;;;;;;4878992;29;20148;-72
2021/12/14 05:19:13;;;;;;;919.38;75.68;;;;;;;;;;4896695;29;20131;-73
2021/12/14 05:21:46;;;;;;;500.80;62.55;;;;;;;;;;4939951;29;20072;-73
2021/12/14 05:24:17;;;;;;;1311.95;93.25;;;;;;;;;;4941696;29;20032;-77
2021/12/14 05:26:43;;;;;;;666.08;70.30;;;;;;;;;;4938668;29;20067;-78
2021/12/14 05:29:10;;;;;;;535.92;63.45;;;;;;;;;;4940485;29;20032;-75
2021/12/14 05:31:55;;;;;;;672.38;68.38;;;;;;;;;;4935418;29;20405;-73
2021/12/14 05:34:25;;;;;;;1062.82;79.88;;;;;;;;;;4932722;29;20505;-74
2021/12/14 05:36:51;;;;;;;789.67;68.10;;;;;;;;;;4940416;29;20103;-77
2021/12/14 05:52:54;;;;;;;826.50;75.50;;;;;;;;;;5160603;23;20267;-75
2021/12/14 05:55:24;;;;;;;486.35;59.50;;;;;;;;;;4923874;29;20052;-74
2021/12/14 05:57:57;;;;;;;701.78;66.82;;;;;;;;;;4919682;29;20034;-78
2021/12/14 06:00:23;;;;;;;559.42;62.75;;;;;;;;;;4914718;29;20047;-73
2021/12/14 06:02:49;;;;;;;543.40;61.58;;;;;;;;;;4931659;29;20048;-75
2021/12/14 06:05:17;;;;;;;450.38;56.97;;;;;;;;;;4945956;28;20028;-76
2021/12/14 06:07:49;;;;;;;735.28;65.25;;;;;;;;;;4935877;29;20042;-76
2021/12/14 06:10:16;;;;;;;426.67;55.92;;;;;;;;;;4947664;28;20035;-76
2021/12/14 06:12:45;;;;;;;459.60;57.38;;;;;;;;;;4935672;29;20038;-77
2021/12/14 06:15:16;;;;;;;739.60;67.90;;;;;;;;;;4943457;29;20030;-73
2021/12/14 06:17:46;;;;;;;828.22;67.50;;;;;;;;;;4933297;29;20032;-76
2021/12/14 06:20:15;;;;;;;787.20;74.30;;;;;;;;;;4931870;29;20024;-75
2021/12/14 06:22:42;;;;;;;339.63;53.70;;;;;;;;;;4930372;29;20042;-75
2021/12/14 06:25:23;;;;;;;678.22;68.70;;;;;;;;;;4940956;28;20035;-78
2021/12/14 06:27:59;;;;;;;686.80;67.47;;;;;;;;;;4936060;28;20047;-79
2021/12/14 06:30:43;;;;;;;565.88;63.80;;;;;;;;;;4933076;29;20032;-74
2021/12/14 06:33:10;;;;;;;636.80;68.93;;;;;;;;;;4923956;29;20052;-74
2021/12/14 06:35:45;;;;;;;316.50;56.20;;;;;;;;;;4927307;29;20091;-74
2021/12/14 06:38:24;;;;;;;506.13;71.22;;;;;;;;;;4930767;29;20106;-73
2021/12/14 06:41:06;;;;;;;556.33;71.20;;;;;;;;;;4936271;29;20062;-74
2021/12/14 06:43:37;;;;;;;597.85;83.72;;;;;;;;;;4930832;29;20023;-74
2021/12/14 06:46:11;;;;;;;436.60;72.05;;;;;;;;;;4934590;29;20024;-75
2021/12/14 06:48:38;;;;;;;603.05;78.38;;;;;;;;;;4926676;29;20040;-73
2021/12/14 06:51:04;;;;;;;528.45;75.88;;;;;;;;;;4927097;29;20035;-74
2021/12/14 06:53:30;;;;;;;571.45;76.65;;;;;;;;;;4928245;29;20056;-74
2021/12/14 06:55:57;;;;;;;354.67;62.13;;;;;;;;;;4936937;29;20040;-74
2021/12/14 06:58:26;;;;;;;501.48;65.05;;;;;;;;;;4933868;29;20031;-74
2021/12/14 07:01:07;;;;;;;404.30;59.60;;;;;;;;;;4938273;29;20028;-74
2021/12/14 07:03:50;;;;;;;425.65;64.97;;;;;;;;;;4939769;29;20047;-74
2021/12/14 07:06:33;;;;;;;704.50;72.18;;;;;;;;;;4941911;29;20031;-74
2021/12/14 07:09:06;;;;;;;465.73;61.35;;;;;;;;;;4932072;29;20036;-75
2021/12/14 07:11:33;;;;;;;431.15;64.38;;;;;;;;;;4944935;29;20031;-74
2021/12/14 07:14:00;;;;;;;596.97;83.57;;;;;;;;;;4924576;29;20039;-75
2021/12/14 07:16:32;;;;;;;538.65;87.82;;;;;;;;;;4933705;29;20071;-75
2021/12/14 07:19:00;;;;;;;439.27;69.63;;;;;;;;;;4924367;29;20107;-74
2021/12/14 07:21:38;;;;;;;361.08;68.50;;;;;;;;;;4910925;29;20067;-75
2021/12/14 07:24:22;;;;;;;272.50;54.33;;;;;;;;;;4922121;29;20025;-74
2021/12/14 07:26:49;;;;;;;378.83;74.47;;;;;;;;;;4936411;29;20067;-74
2021/12/14 07:29:22;;;;;;;311.98;54.85;;;;;;;;;;4941084;29;20486;-74
2021/12/14 07:31:48;;;;;;;404.77;74.35;;;;;;;;;;4937745;29;20115;-75
2021/12/14 07:34:14;;;;;;;282.55;57.60;;;;;;;;;;4925700;29;20106;-76
2021/12/14 07:36:41;;;;;;;262.23;65.10;;;;;;;;;;4915741;29;20032;-74
2021/12/14 07:39:09;;;;;;;307.85;73.55;;;;;;;;;;4925168;29;20032;-74
2021/12/14 07:41:35;;;;;;;380.20;108.20;;;;;;;;;;4942223;29;20037;-75
2021/12/14 07:44:02;;;;;;;339.80;87.00;;;;;;;;;;4934447;29;20028;-74
2021/12/14 07:46:34;;;;;;;361.67;80.70;;;;;;;;;;4937225;29;20119;-74
2021/12/14 07:49:02;;;;;;;411.85;76.00;;;;;;;;;;4927482;29;20439;-73
2021/12/14 07:51:29;;;;;;;350.33;64.65;;;;;;;;;;4926694;29;20040;-74
2021/12/14 07:54:01;;;;;;;389.33;59.38;;;;;;;;;;4930481;29;20044;-74
2021/12/14 07:56:28;;;;;;;596.42;121.60;;;;;;;;;;4921874;29;20083;-73
2021/12/14 07:59:03;;;;;;;418.98;98.50;;;;;;;;;;4932842;29;20072;-74
2021/12/14 08:01:29;;;;;;;408.05;91.72;;;;;;;;;;4924287;29;20032;-75
2021/12/14 08:04:14;;;;;;;229.07;61.47;;;;;;;;;;4934636;29;20031;-75
2021/12/14 08:06:48;;;;;;;330.25;60.42;;;;;;;;;;4937428;29;20040;-73
2021/12/14 08:09:18;;;;;;;421.90;63.22;;;;;;;;;;4926604;29;20086;-74
2021/12/14 08:11:49;;;;;;;391.85;61.90;;;;;;;;;;4930091;29;20016;-75
2021/12/14 08:14:23;;;;;;;367.60;66.22;;;;;;;;;;4929729;29;20486;-74
2021/12/14 08:16:54;;;;;;;255.32;67.45;;;;;;;;;;4934270;29;20027;-74
2021/12/14 08:19:25;;;;;;;394.40;57.20;;;;;;;;;;4926869;29;20032;-74
2021/12/14 08:21:52;;;;;;;207.40;54.38;;;;;;;;;;4928861;29;20036;-75
2021/12/14 08:24:18;;;;;;;204.70;52.38;;;;;;;;;;4935835;29;20014;-74
2021/12/14 08:26:47;;;;;;;372.65;92.25;;;;;;;;;;4928678;29;20110;-75
2021/12/14 08:29:13;;;;;;;288.20;68.05;;;;;;;;;;4911950;29;20024;-73
2021/12/14 08:31:45;;;;;;;219.75;65.88;;;;;;;;;;4942738;29;20038;-74
2021/12/14 08:34:13;;;;;;;314.27;60.95;;;;;;;;;;4933095;29;20378;-74
2021/12/14 08:36:59;;;;;;;244.52;62.03;;;;;;;;;;4938349;29;20043;-73
2021/12/14 08:39:27;;;;;;;174.57;58.65;;;;;;;;;;4935078;29;20034;-75
2021/12/14 08:42:04;;;;;;;212.55;62.67;;;;;;;;;;4945998;29;20074;-74
2021/12/14 08:44:38;;;;;;;156.82;57.65;;;;;;;;;;4937716;29;20075;-74
2021/12/14 08:47:06;;;;;;;242.73;91.25;;;;;;;;;;4937354;29;20052;-75
2021/12/14 08:49:33;;;;;;;229.55;106.85;;;;;;;;;;4930161;29;20028;-75
2021/12/14 08:51:59;;;;;;;216.02;84.28;;;;;;;;;;4942823;29;20052;-74
2021/12/14 09:31:23;;;;;;;153.45;72.80;;;;;;;;;;5624036;23;20056;-76
2021/12/14 09:45:08;;;;;;;147.20;66.55;;;;;;;;;;6002869;23;20049;-78
2021/12/14 10:06:11;;;;;;;98.47;51.60;;;;;;;;;;5287839;23;20051;-79
2021/12/14 10:09:15;;;;;;;94.47;50.28;;;;;;;;;;4925101;29;20073;-77
2021/12/14 10:15:04;;;;;;;108.80;58.92;;;;;;;;;;5064358;23;20069;-80
2021/12/14 10:17:59;;;;;;;120.00;62.40;;;;;;;;;;4847738;29;20026;-79
2021/12/14 10:21:01;;;;;;;113.43;59.00;;;;;;;;;;4845559;29;20050;-79
2021/12/14 10:24:07;;;;;;;105.00;51.97;;;;;;;;;;4814072;29;20083;-82
2021/12/14 10:26:54;;;;;;;93.72;51.38;;;;;;;;;;4800359;29;20050;-77
2021/12/14 10:29:23;;;;;;;99.85;53.90;;;;;;;;;;4785487;30;20040;-76
2021/12/14 10:31:52;;;;;;;96.25;52.80;;;;;;;;;;4782429;30;20054;-76
2021/12/14 10:34:22;;;;;;;86.57;48.47;;;;;;;;;;4782782;30;20040;-76
2021/12/14 10:36:54;;;;;;;79.47;46.85;;;;;;;;;;4771772;30;20068;-75
2021/12/14 10:44:47;;;;;;;116.07;60.67;;;;;;;;;;4778430;30;20144;-78
2021/12/14 10:49:50;;;;;;;132.68;69.75;;;;;;;;;;5494228;23;20127;-73
2021/12/14 10:52:18;;;;;;;144.27;76.65;;;;;;;;;;4938377;29;20520;-73
2021/12/14 10:55:03;;;;;;;146.18;77.63;;;;;;;;;;4940181;29;20042;-79
2021/12/14 10:57:33;;;;;;;133.05;75.22;;;;;;;;;;4957344;29;20038;-78
2021/12/14 11:00:16;;;;;;;153.85;91.40;;;;;;;;;;4956920;28;20039;-78
2021/12/14 11:02:47;;;;;;;133.25;74.45;;;;;;;;;;4954063;29;20024;-77
2021/12/14 11:05:36;;;;;;;135.43;77.05;;;;;;;;;;4953841;29;20036;-77
2021/12/14 11:18:08;;;;;;;141.05;76.75;;;;;;;;;;5697351;23;20079;-77
2021/12/14 11:24:35;;;;;;;109.30;64.22;;;;;;;;;;5333547;23;20048;-76
2021/12/14 11:27:13;;;;;;;118.10;63.03;;;;;;;;;;4932575;29;20114;-78
2021/12/14 11:37:58;;;;;;;99.72;56.33;;;;;;;;;;5607500;23;20063;-79
2021/12/14 11:40:26;;;;;;;102.53;56.50;;;;;;;;;;4922794;29;20036;-73
2021/12/14 11:42:53;;;;;;;90.97;53.45;;;;;;;;;;4931449;29;20028;-73
2021/12/14 11:45:20;;;;;;;94.13;53.90;;;;;;;;;;4927436;29;20103;-73
2021/12/14 11:47:51;;;;;;;97.60;58.97;;;;;;;;;;4939508;29;20132;-73
2021/12/14 11:50:22;;;;;;;95.32;53.22;;;;;;;;;;4930444;29;20036;-72
2021/12/14 11:53:13;;;;;;;92.95;55.72;;;;;;;;;;4928875;29;20129;-73
2021/12/14 11:55:39;;;;;;;85.90;52.47;;;;;;;;;;4919135;29;20040;-73
2021/12/14 11:58:26;;;;;;;85.97;49.67;;;;;;;;;;4929587;29;20016;-72
2021/12/14 12:00:58;;;;;;;88.50;53.30;;;;;;;;;;4913942;29;20024;-72
2021/12/14 12:17:31;;;;;;;84.40;51.25;;;;;;;;;;5174806;23;20063;-77
2021/12/14 12:20:26;;;;;;;89.65;55.33;;;;;;;;;;4950122;29;20051;-77
2021/12/14 12:23:26;;;;;;;93.95;53.97;;;;;;;;;;4958092;29;20035;-78
2021/12/14 12:26:02;;;;;;;95.93;55.53;;;;;;;;;;4952272;29;20050;-78
2021/12/14 12:28:32;;;;;;;88.20;52.28;;;;;;;;;;4939605;29;20035;-76
2021/12/14 12:31:08;;;;;;;89.07;53.00;;;;;;;;;;4946423;29;20054;-76
2021/12/14 12:33:48;;;;;;;95.10;56.35;;;;;;;;;;4925032;29;20103;-76
2021/12/14 12:36:29;;;;;;;100.95;59.00;;;;;;;;;;4912121;29;20070;-77
2021/12/14 12:39:01;;;;;;;119.65;74.85;;;;;;;;;;4919308;29;20032;-76
2021/12/14 12:41:49;;;;;;;110.82;65.35;;;;;;;;;;4924484;29;20060;-74
2021/12/14 12:49:57;;;;;;;95.43;56.35;;;;;;;;;;4659757;27;20475;-78
2021/12/14 12:52:32;;;;;;;100.78;58.17;;;;;;;;;;4908825;29;20176;-78
2021/12/14 12:55:04;;;;;;;98.50;57.45;;;;;;;;;;4909770;29;20052;-77
2021/12/14 12:57:58;;;;;;;96.82;56.97;;;;;;;;;;4895555;29;20050;-79
2021/12/14 13:00:29;;;;;;;98.05;56.67;;;;;;;;;;4915430;29;20036;-77
2021/12/14 13:03:15;;;;;;;97.97;58.33;;;;;;;;;;4895095;29;20081;-76
2021/12/14 13:06:10;;;;;;;104.82;58.67;;;;;;;;;;4894028;29;20064;-76
2021/12/14 13:08:46;;;;;;;94.40;55.17;;;;;;;;;;4876592;29;20068;-78
2021/12/14 13:11:12;;;;;;;90.85;52.17;;;;;;;;;;4886415;29;21857;-78
2021/12/14 13:13:43;;;;;;;89.10;54.53;;;;;;;;;;4879872;29;20416;-77
2021/12/14 13:16:21;;;;;;;85.47;52.92;;;;;;;;;;4879749;29;20439;-75
2021/12/14 13:19:11;;;;;;;91.68;56.28;;;;;;;;;;4880039;29;20033;-78
2021/12/14 13:21:59;;;;;;;106.35;60.60;;;;;;;;;;4897478;29;20048;-78
2021/12/14 13:24:31;;;;;;;126.75;74.88;;;;;;;;;;5303621;23;20048;-74
2021/12/14 13:26:59;;;;;;;113.63;65.00;;;;;;;;;;4947221;29;20040;-77
2021/12/14 13:35:15;;;;;;;120.25;70.78;;;;;;;;;;5116703;23;20060;-79
2021/12/14 13:40:31;;;;;;;132.77;70.45;;;;;;;;;;5259201;23;20064;-78
2021/12/14 13:43:10;;;;;;;121.10;64.53;;;;;;;;;;4919240;23;20087;-77
2021/12/14 13:45:48;;;;;;;120.43;62.75;;;;;;;;;;4907244;29;20037;-78
2021/12/14 13:48:17;;;;;;;114.55;63.25;;;;;;;;;;4914617;29;20047;-78
2021/12/14 13:51:01;;;;;;;129.73;68.00;;;;;;;;;;4894335;29;20035;-77
2021/12/14 13:53:27;;;;;;;131.30;65.72;;;;;;;;;;4912491;29;20036;-73
2021/12/14 13:55:59;;;;;;;136.57;69.35;;;;;;;;;;4911411;29;20039;-74
2021/12/14 13:58:26;;;;;;;182.23;100.07;;;;;;;;;;4908599;29;20029;-74
2021/12/14 14:01:19;;;;;;;209.00;119.95;;;;;;;;;;4913701;29;20110;-73
2021/12/14 14:03:48;;;;;;;169.32;84.60;;;;;;;;;;4907288;29;20100;-74
2021/12/14 14:06:15;;;;;;;170.73;94.75;;;;;;;;;;4903989;29;20036;-73
2021/12/14 14:08:43;;;;;;;163.65;87.00;;;;;;;;;;4907429;29;20135;-73
2021/12/14 14:11:14;;;;;;;156.48;75.70;;;;;;;;;;4912175;29;20067;-72
2021/12/14 14:13:41;;;;;;;161.52;74.55;;;;;;;;;;4909743;29;20043;-73
2021/12/14 14:16:08;;;;;;;186.57;84.03;;;;;;;;;;4913584;29;20501;-73
2021/12/14 14:18:38;;;;;;;198.15;81.32;;;;;;;;;;4914931;29;20025;-72
2021/12/14 14:21:06;;;;;;;174.93;78.70;;;;;;;;;;4911312;29;20024;-73
2021/12/14 14:23:42;;;;;;;229.65;98.57;;;;;;;;;;4913413;29;20055;-74
2021/12/14 14:26:13;;;;;;;225.50;102.03;;;;;;;;;;4908720;29;20043;-74
2021/12/14 14:28:41;;;;;;;244.02;111.53;;;;;;;;;;4921943;29;20135;-73
2021/12/14 14:31:14;;;;;;;210.15;92.13;;;;;;;;;;4912879;29;20025;-73
2021/12/14 14:33:49;;;;;;;240.02;99.75;;;;;;;;;;4911471;29;20053;-73
2021/12/14 14:36:24;;;;;;;242.23;102.25;;;;;;;;;;4904615;29;20415;-72
2021/12/14 14:38:52;;;;;;;266.55;90.50;;;;;;;;;;4910825;29;20044;-74
2021/12/14 14:41:38;;;;;;;271.77;94.72;;;;;;;;;;4906898;29;20050;-79
2021/12/14 14:44:23;;;;;;;361.60;162.25;;;;;;;;;;4915493;29;20085;-75
2021/12/14 14:46:54;;;;;;;853.10;433.17;;;;;;;;;;4911052;29;20124;-74
2021/12/14 14:49:22;;;;;;;664.55;275.25;;;;;;;;;;4903894;29;20025;-73
2021/12/14 14:51:48;;;;;;;461.48;202.55;;;;;;;;;;4903977;29;20060;-73
2021/12/14 14:54:33;;;;;;;413.98;152.25;;;;;;;;;;4912156;29;20027;-73
2021/12/14 14:57:19;;;;;;;587.42;165.88;;;;;;;;;;4904914;29;20025;-74
2021/12/14 14:59:57;;;;;;;696.63;203.35;;;;;;;;;;4909536;29;20065;-74
2021/12/14 15:02:54;;;;;;;971.67;246.35;;;;;;;;;;4912476;29;20399;-74
2021/12/14 15:05:22;;;;;;;1195.07;209.45;;;;;;;;;;4840115;29;20047;-74
2021/12/14 15:07:53;;;;;;;1066.97;273.42;;;;;;;;;;4828079;29;21895;-73
2021/12/14 15:10:21;;;;;;;1278.20;245.98;;;;;;;;;;4833317;29;20035;-75
2021/12/14 15:13:21;;;;;;;652.40;191.70;;;;;;;;;;4833189;29;20022;-78
2021/12/14 15:15:57;;;;;;;1004.40;245.75;;;;;;;;;;4822035;29;20049;-78
2021/12/14 15:18:43;;;;;;;1571.03;216.13;;;;;;;;;;4830493;29;20042;-77
2021/12/14 15:21:33;;;;;;;702.60;129.23;;;;;;;;;;4827540;29;20087;-76
2021/12/14 15:24:18;;;;;;;590.35;150.07;;;;;;;;;;4837082;29;20053;-76
2021/12/14 15:27:04;;;;;;;537.75;163.55;;;;;;;;;;4835540;29;20062;-75
2021/12/14 15:29:30;;;;;;;675.78;112.80;;;;;;;;;;4834507;29;20078;-74
2021/12/14 15:32:30;;;;;;;663.25;122.57;;;;;;;;;;4846592;29;20034;-79
2021/12/14 15:37:47;;;;;;;829.58;201.30;;;;;;;;;;5494596;23;20153;-74
2021/12/14 15:40:13;;;;;;;580.75;250.77;;;;;;;;;;4946305;29;20035;-76
2021/12/14 15:42:41;;;;;;;539.65;146.43;;;;;;;;;;4941364;29;20035;-78
2021/12/14 15:45:12;;;;;;;1093.18;176.18;;;;;;;;;;4946397;29;20034;-77
2021/12/14 15:47:57;;;;;;;1473.28;242.80;;;;;;;;;;4941596;29;20064;-77
2021/12/14 15:50:23;;;;;;;517.97;193.85;;;;;;;;;;4945845;29;20046;-77
2021/12/14 15:53:08;;;;;;;1503.88;369.85;;;;;;;;;;4933193;29;20055;-77
2021/12/14 15:55:34;;;;;;;1169.43;210.90;;;;;;;;;;4920570;29;20040;-76
2021/12/14 15:58:00;;;;;;;1399.78;208.60;;;;;;;;;;4940601;29;20098;-77
2021/12/14 16:00:27;;;;;;;903.40;302.92;;;;;;;;;;4927764;29;20039;-78
2021/12/14 16:02:53;;;;;;;791.92;149.57;;;;;;;;;;4939109;29;20107;-78
2021/12/14 16:05:19;;;;;;;631.10;129.07;;;;;;;;;;4938856;29;20023;-77
2021/12/14 16:07:45;;;;;;;816.35;138.38;;;;;;;;;;4941338;29;20558;-76
2021/12/14 16:10:20;;;;;;;790.45;125.80;;;;;;;;;;4940585;29;20115;-77
2021/12/14 16:15:37;;;;;;;1118.05;143.55;;;;;;;;;;4950033;29;20078;-78
2021/12/14 16:18:06;;;;;;;1147.50;150.25;;;;;;;;;;4948574;29;20050;-83
2021/12/14 16:20:36;;;;;;;676.65;120.18;;;;;;;;;;4944501;29;20115;-78
2021/12/14 16:23:04;;;;;;;894.75;137.55;;;;;;;;;;4939253;29;20016;-78
2021/12/14 16:25:32;;;;;;;1062.38;146.73;;;;;;;;;;4933717;29;20023;-77
2021/12/14 16:28:30;;;;;;;1131.65;159.45;;;;;;;;;;4940163;29;20035;-81
2021/12/14 16:31:23;;;;;;;849.53;134.55;;;;;;;;;;5372782;23;20059;-78
2021/12/14 16:33:52;;;;;;;971.53;133.07;;;;;;;;;;4915130;29;20032;-80
2021/12/14 16:36:20;;;;;;;867.00;117.22;;;;;;;;;;4914336;29;20353;-82
2021/12/14 16:42:10;;;;;;;1441.80;188.13;;;;;;;;;;4934470;29;20059;-82
2021/12/14 16:44:44;;;;;;;1999.90;532.85;;;;;;;;;;4870586;29;20049;-88
2021/12/14 16:47:17;;;;;;;847.13;160.80;;;;;;;;;;4876256;29;20105;-81
2021/12/14 16:49:53;;;;;;;501.40;111.30;;;;;;;;;;4875206;29;20037;-86
2021/12/14 16:52:32;;;;;;;1019.30;169.20;;;;;;;;;;4887367;29;20480;-90
2021/12/14 16:55:07;;;;;;;472.50;136.48;;;;;;;;;;4888579;29;20120;-88
2021/12/14 16:57:36;;;;;;;540.92;269.33;;;;;;;;;;4846997;29;20037;-89
2021/12/14 17:00:22;;;;;;;387.20;154.23;;;;;;;;;;4888667;29;20121;-79
2021/12/14 17:02:48;;;;;;;300.75;111.45;;;;;;;;;;4883187;29;20124;-76
2021/12/14 17:05:19;;;;;;;358.10;134.48;;;;;;;;;;4877421;29;20073;-76
2021/12/14 17:07:46;;;;;;;390.50;155.82;;;;;;;;;;4884454;29;20056;-78
2021/12/14 17:10:18;;;;;;;416.80;167.93;;;;;;;;;;4867193;29;20040;-80
2021/12/14 17:12:46;;;;;;;358.02;155.13;;;;;;;;;;4879309;29;20124;-77
2021/12/14 17:15:25;;;;;;;864.67;234.50;;;;;;;;;;4902534;29;20070;-76
2021/12/14 17:17:52;;;;;;;755.70;169.18;;;;;;;;;;4939113;29;20050;-77
2021/12/14 17:20:18;;;;;;;1373.07;215.10;;;;;;;;;;4945740;29;20032;-74
2021/12/14 17:22:44;;;;;;;1406.68;229.77;;;;;;;;;;4945511;29;20054;-81